Power by www.initrio-led.comwww.initrio-led.comwww.initrio-led.comwww.initrio-led.comwww.initrio-led.com

HONDA HRV CLUB - ศูนย์กลางสถิติ

สถิติทั่วไป

จำนวนสมาชิกทั้งหมด:
605
จำนวนตอบกระทู้ทั้งหมด:
260566
จำนวนหัวข้อทั้งหมด:
220595
จำนวนหมวดหมู่ทั้งหมด:
14
ผู้ใช้งานที่ออนไลน์:
96
ออนไลน์มากที่สุด:
263 - 1 พ.ย. 2017, 08:38:26 น.
ออนไลน์วันนี้:
152
เพจวิวทั้งหมด:
7064794
สมาชิกเฉลี่ยต่อวัน:
0.99
ตอบกระทู้เฉลี่ยต่อวัน:
212.09
หัวข้อเฉลี่ยต่อวัน:
178.63
จำนวนบอร์ดทั้งหมด:
30
สมาชิกล่าสุด:
gozilla1
ออนไลน์เฉลี่ยต่อวัน:
56.52
อัตราส่วนระหว่างชายกับหญิง:
2.2:1
เฉลี่ยเพจวิวต่อวัน:
5720.48

หัวข้อยอดนิยม 10 หัวข้อแรก (ผู้ตอบสูงสุด)

[[ ขาย ]] จำหน่ายถาดท้ายรถยนต์ HONDA HRV และผ้ายางเข้ารูป ราคาโรงงาน !!!!!!
1591
[รับซื้อรถมือสอง]ราคาสูงที่สุด ทุกรุ่นทุกยี่ห้อ คุยง่ายพร้อมบริการถึงที่ครับ
944
สีแต้มรถ HONDA HRV ขวดละ 170.- (imixpaint) และอุปกรณ์งานแต้มสีรถ
712
!!!! แรงสุดทั่วราชอาณาจักร ดูแคมเปญสุดเล้าใจพร้อมดาวน์โหลดโปรชัวร์ได้ที่นี้ !!!!
709
!!! รับซื้อ รถ สด แรง เร็ว IN AND OUT car ซื้อทุกรุ่น ทุกยี่ห้อ พร้อมโปรโมชั่นรถ
687
พรมปูพื้นรถยนต์เข้ารูป ผ้ายางปูพื้นรถ ถาดท้าย พรม5D คิ้วกันสาดเข้ารูปเพียง600-!!
518
ขายผ้าคลุมรถHRV กันน้ำ กันแดดคุณภาพเยี่ยม [รับสั่งตัดงานพิเศษ ทุกแบบ] พร้อมส่ง
493
__เครื่องชาร์จแบตเตอรี่อัจฉริยะ NOCO GENIUS จาก USA ดีที่สุด/ถูกที่สุด ประกัน5ปี
466
"พรมกระดุม พรมดักฝุ่น สูตรดั้งเดิม ทนมากกกก Mr.CARPET"
432
ล้อป้ายแดง Hrv 17 พร้อมยาง
432

หัวข้อยอดนิยม 10 หัวข้อแรก (ผู้อ่านสูงสุด)

[[ ขาย ]] จำหน่ายถาดท้ายรถยนต์ HONDA HRV และผ้ายางเข้ารูป ราคาโรงงาน !!!!!!
31269
พรมปูพื้นรถยนต์เข้ารูป ผ้ายางปูพื้นรถ ถาดท้าย พรม5D คิ้วกันสาดเข้ารูปเพียง600-!!
13746
ของแต่ง HR-V มาแว้ว คลิกเลย!!!!!!!!!!!!!! ราคากันเอง ฟรีติดตั้ัง
12677
ล้อ ยาง max ใหม่หรือป้ายแดง HONDA HRV หลายชุด ขายถูก ติดตั้งหรือส่งทั่วไทยคร้าบ
9972
[รับซื้อรถมือสอง]ราคาสูงที่สุด ทุกรุ่นทุกยี่ห้อ คุยง่ายพร้อมบริการถึงที่ครับ
9780
!!!! แรงสุดทั่วราชอาณาจักร ดูแคมเปญสุดเล้าใจพร้อมดาวน์โหลดโปรชัวร์ได้ที่นี้ !!!!
9350
"พรมกระดุม พรมดักฝุ่น สูตรดั้งเดิม ทนมากกกก Mr.CARPET"
8648
!!! รับซื้อ รถ สด แรง เร็ว IN AND OUT car ซื้อทุกรุ่น ทุกยี่ห้อ พร้อมโปรโมชั่นรถ
8482
ขายผ้าคลุมรถHRV กันน้ำ กันแดดคุณภาพเยี่ยม [รับสั่งตัดงานพิเศษ ทุกแบบ] พร้อมส่ง
8071
ล้างเเอร์รถยนต์ 500 บาท ซอยหลวงพ่อโต บางพลี พร้อมบริการ ซ่อมเเอร์ ขัดไฟหน้า เเบต
7008

เริ่มหัวข้อใหม่มากที่สุด

ออนไลน์นานที่สุด

sabuyjai03
1วัน 16ชั่วโมง 30นาที
montien
1วัน 12ชั่วโมง 31นาที
aircardok
1วัน 12ชั่วโมง 11นาที
้hairman
1วัน 5ชั่วโมง 36นาที
MEE-GUSTO
1วัน 4ชั่วโมง 49นาที
Teetawat
1วัน 21นาที
ryry005
20ชั่วโมง 42นาที
salestray
19ชั่วโมง 48นาที
mr_carpet
17ชั่วโมง 56นาที
pengeng
16ชั่วโมง 55นาที

รายละเอียดระบบย้อนหลัง

สรุปประจำเดือน หัวข้อใหม่ ตอบกระทู้ใหม่ สมาชิกใหม่ ออนไลน์มากที่สุด เพจวิว
* 2018 137292 160821 364 232 4511720
สิงหาคม 2018 15447 18509 29 223 535769
กรกฎาคม 2018 17523 21113 59 215 701697
มิถุนายน 2018 16373 19345 59 204 593398
พฤษภาคม 2018 20541 23547 33 204 663341
เมษายน 2018 17848 20631 45 209 566747
มีนาคม 2018 18137 20841 54 198 528713
กุมภาพันธ์ 2018 15830 18384 36 232 442874
มกราคม 2018 15593 18451 49 200 479181
* 2017 83030 94959 188 263 2330439
ธันวาคม 2017 21075 23350 21 195 569151
2017-12-01 673 759 1 195 19568
2017-12-02 545 613 1 194 15203
2017-12-03 509 564 0 140 13488
2017-12-04 580 650 0 136 15364
2017-12-05 567 636 0 134 14396
2017-12-06 548 632 2 125 14083
2017-12-07 746 806 2 191 18955
2017-12-08 741 801 1 172 19629
2017-12-09 648 697 0 153 15673
2017-12-10 684 716 0 137 16523
2017-12-11 694 744 2 134 16992
2017-12-12 764 844 0 134 20170
2017-12-13 731 799 2 139 18311
2017-12-14 814 894 0 187 20168
2017-12-15 761 827 0 172 20323
2017-12-16 753 829 0 170 20326
2017-12-17 691 756 1 145 17970
2017-12-18 678 784 0 146 19850
2017-12-19 684 765 3 147 22927
2017-12-20 715 823 0 133 19140
2017-12-21 686 785 1 179 29208
2017-12-22 738 834 1 186 20652
2017-12-23 744 790 1 158 19297
2017-12-24 518 566 0 134 13098
2017-12-25 514 602 0 141 14272
2017-12-26 631 743 1 136 16783
2017-12-27 775 883 1 134 19372
2017-12-28 759 868 0 179 19321
2017-12-29 809 888 1 179 21601
2017-12-30 715 761 0 159 19847
2017-12-31 660 691 0 150 16641
พฤศจิกายน 2017 20293 22242 20 263 530288
ตุลาคม 2017 17994 19931 16 195 473501
กันยายน 2017 16631 18357 22 160 414879
2017-09-01 475 518 0 57 10454
2017-09-02 585 619 3 50 12430
2017-09-03 593 637 1 55 12733
2017-09-04 608 654 3 81 13423
2017-09-05 594 646 1 88 13389
2017-09-06 583 644 1 66 13289
2017-09-07 489 536 0 61 10891
2017-09-08 546 591 2 63 12916
2017-09-09 522 551 0 55 12249
2017-09-10 565 614 0 61 12845
2017-09-11 521 580 0 111 11981
2017-09-12 536 604 0 118 13542
2017-09-13 557 617 0 67 12438
2017-09-14 517 579 2 68 12238
2017-09-15 548 599 0 65 12393
2017-09-16 540 598 0 56 22579
2017-09-17 531 574 0 58 12030
2017-09-18 550 605 0 71 12597
2017-09-19 556 623 2 148 25091
2017-09-20 583 664 1 92 14345
2017-09-21 591 653 1 87 13607
2017-09-22 590 664 0 81 14166
2017-09-23 574 643 1 82 15804
2017-09-24 588 637 0 81 13373
2017-09-25 462 542 0 77 11484
2017-09-26 537 631 0 160 14776
2017-09-27 549 632 1 139 14624
2017-09-28 574 639 2 117 14373
2017-09-29 577 633 1 79 15109
2017-09-30 590 630 0 92 13710
สิงหาคม 2017 6944 7765 34 86 177610
2017-08-01 0 11 0 20 251
2017-08-02 1 24 1 20 6353
2017-08-03 2 20 1 20 3776
2017-08-04 1 18 1 24 313
2017-08-05 0 35 1 35 582
2017-08-06 1 14 0 31 346
2017-08-07 1 13 1 30 340
2017-08-08 0 20 2 26 449
2017-08-09 5 20 3 30 428
2017-08-10 4 21 3 26 1549
2017-08-11 3 22 2 29 471
2017-08-12 1 26 0 48 574
2017-08-13 0 13 0 45 524
2017-08-14 3 17 1 42 605
2017-08-15 0 29 1 44 612
2017-08-16 1 28 0 48 639
2017-08-17 2 27 1 48 707
2017-08-18 1 24 1 39 601
2017-08-19 1 12 0 43 369
2017-08-20 2 15 0 21 1512
2017-08-21 2 27 0 69 988
2017-08-22 4 29 1 53 796
2017-08-23 912 938 7 62 21182
2017-08-24 1116 1167 1 67 24640
2017-08-25 957 1014 2 66 20527
2017-08-26 832 864 0 60 18031
2017-08-27 780 819 1 58 17058
2017-08-28 636 683 2 86 15417
2017-08-29 525 569 1 79 11902
2017-08-30 679 720 0 59 15289
2017-08-31 472 526 0 53 10779
กรกฎาคม 2017 20 472 20 24 11154
มิถุนายน 2017 13 489 10 21 19526
2017-06-01 1 27 0 16 1243
2017-06-02 1 17 0 13 194
2017-06-03 1 25 1 14 269
2017-06-04 0 24 1 13 267
2017-06-05 1 30 2 17 305
2017-06-06 0 13 0 19 184
2017-06-07 0 12 0 20 182
2017-06-08 0 13 0 18 193
2017-06-09 0 7 0 21 375
2017-06-10 1 25 0 19 361
2017-06-11 0 17 0 13 1182
2017-06-12 1 11 0 13 180
2017-06-13 0 14 0 19 190
2017-06-14 0 11 0 16 9807
2017-06-15 0 31 0 19 301
2017-06-16 0 12 0 13 206
2017-06-17 1 25 1 12 252
2017-06-18 0 7 0 12 129
2017-06-19 1 12 0 13 153
2017-06-20 1 15 0 15 228
2017-06-21 0 11 0 12 1120
2017-06-22 1 13 1 16 249
2017-06-23 0 8 1 14 323
2017-06-24 0 20 1 15 215
2017-06-25 0 21 0 16 356
2017-06-26 1 16 1 15 333
2017-06-27 0 13 1 19 185
2017-06-28 0 11 0 13 150
2017-06-29 1 13 0 15 182
2017-06-30 1 15 0 15 212
พฤษภาคม 2017 6 227 0 19 8523
เมษายน 2017 11 223 5 109 13439
2017-04-01 0 12 1 34 2116
2017-04-02 3 24 1 52 530
2017-04-03 0 20 0 41 505
2017-04-04 0 23 0 109 2241
2017-04-05 3 15 1 96 1097
2017-04-06 0 34 0 74 862
2017-04-07 2 22 2 69 1119
2017-04-08 2 14 0 62 944
2017-04-09 0 21 0 64 1792
2017-04-10 1 20 0 68 825
2017-04-11 0 18 0 60 538
2017-04-12 0 0 0 38 504
2017-04-13 0 0 0 39 312
2017-04-14 0 0 0 2 36
2017-04-15 0 0 0 0 15
2017-04-16 0 0 0 1 1
2017-04-17 0 0 0 1 1
2017-04-18 0 0 0 1 1
มีนาคม 2017 15 719 10 74 42902
กุมภาพันธ์ 2017 12 574 18 95 27236
มกราคม 2017 16 610 12 92 42230
2017-01-01 0 19 1 56 820
2017-01-02 0 9 0 17 1365
2017-01-03 2 14 1 19 296
2017-01-04 0 20 0 52 1093
2017-01-05 0 21 0 67 983
2017-01-06 1 14 2 59 739
2017-01-07 0 28 0 55 7849
2017-01-08 1 21 0 47 968
2017-01-09 0 14 0 52 7624
2017-01-10 0 20 0 54 847
2017-01-11 0 17 0 56 744
2017-01-12 2 19 0 48 1760
2017-01-13 0 27 0 43 608
2017-01-14 0 26 5 53 657
2017-01-15 1 21 0 47 756
2017-01-16 0 20 1 51 753
2017-01-17 1 16 1 45 632
2017-01-18 0 19 0 53 1088
2017-01-19 1 19 0 51 981
2017-01-20 0 18 0 42 1445
2017-01-21 1 20 0 41 706
2017-01-22 0 19 0 49 726
2017-01-23 1 22 0 50 743
2017-01-24 1 22 0 57 1134
2017-01-25 0 25 0 68 1161
2017-01-26 2 22 1 92 1088
2017-01-27 0 18 0 43 1127
2017-01-28 0 26 0 29 1742
2017-01-29 1 19 0 40 494
2017-01-30 0 14 0 45 841
2017-01-31 1 21 0 46 460
* 2016 254 5653 534 175 198775
ธันวาคม 2016 7 629 6 56 19786
พฤศจิกายน 2016 13 568 10 52 24760
ตุลาคม 2016 13 601 11 69 20621
2016-10-01 1 18 1 45 738
2016-10-02 0 17 0 55 445
2016-10-03 0 21 0 36 548
2016-10-04 0 20 0 29 1459
2016-10-05 0 14 0 28 682
2016-10-06 1 21 1 28 442
2016-10-07 1 18 0 34 370
2016-10-08 0 16 0 48 609
2016-10-09 1 17 1 53 588
2016-10-10 0 23 0 44 876
2016-10-11 1 18 2 36 540
2016-10-12 0 18 0 45 766
2016-10-13 0 20 0 35 451
2016-10-14 3 16 0 43 511
2016-10-15 0 17 0 38 655
2016-10-16 0 17 1 53 631
2016-10-17 1 23 1 37 791
2016-10-18 0 23 1 38 412
2016-10-19 2 20 1 48 684
2016-10-20 0 21 0 42 532
2016-10-21 0 20 0 33 457
2016-10-22 0 12 0 26 353
2016-10-23 1 16 1 14 659
2016-10-24 0 15 0 26 289
2016-10-25 0 19 0 69 713
2016-10-26 0 34 0 51 886
2016-10-27 0 28 0 54 630
2016-10-28 0 30 0 54 676
2016-10-29 0 23 0 50 802
2016-10-30 0 9 0 50 1595
2016-10-31 1 17 1 48 831
กันยายน 2016 9 690 14 54 20567
สิงหาคม 2016 48 673 21 50 21743
กรกฎาคม 2016 72 591 225 175 38662
2016-07-01 0 14 1 33 368
2016-07-02 0 14 0 26 366
2016-07-03 0 10 2 18 257
2016-07-04 0 17 2 17 1351
2016-07-05 0 20 1 21 500
2016-07-06 0 13 2 20 316
2016-07-07 0 18 1 22 251
2016-07-08 0 16 3 28 409
2016-07-09 0 11 1 38 307
2016-07-10 1 14 2 15 369
2016-07-11 0 18 1 22 276
2016-07-12 3 22 0 19 296
2016-07-13 0 20 3 21 412
2016-07-14 0 18 1 23 1323
2016-07-15 0 20 51 175 2630
2016-07-16 1 13 62 152 4015
2016-07-17 5 17 66 133 3796
2016-07-18 3 20 16 83 2094
2016-07-19 2 16 0 65 1154
2016-07-20 11 31 2 107 1963
2016-07-21 0 17 1 57 1423
2016-07-22 2 23 0 61 1249
2016-07-23 5 22 0 70 1338
2016-07-24 1 18 0 82 1743
2016-07-25 3 23 0 102 2629
2016-07-26 5 22 2 51 1436
2016-07-27 7 26 2 54 1008
2016-07-28 5 26 1 29 1687
2016-07-29 8 31 2 34 1860
2016-07-30 6 23 0 20 835
2016-07-31 4 18 0 55 1001
มิถุนายน 2016 7 441 43 32 13927
2016-06-01 0 15 3 18 405
2016-06-02 0 12 3 15 200
2016-06-03 0 10 1 17 1215
2016-06-04 0 12 1 17 277
2016-06-05 0 13 0 13 294
2016-06-06 0 20 0 22 286
2016-06-07 0 12 0 15 254
2016-06-08 0 16 1 22 285
2016-06-09 0 13 0 19 293
2016-06-10 0 15 1 20 468
2016-06-11 0 12 2 19 219
2016-06-12 0 9 1 17 250
2016-06-13 0 11 1 20 1295
2016-06-14 0 19 1 21 252
2016-06-15 1 18 1 24 305
2016-06-16 0 13 1 24 430
2016-06-17 0 15 6 32 452
2016-06-18 0 10 0 23 679
2016-06-19 0 12 2 21 645
2016-06-20 0 14 2 15 675
2016-06-21 2 19 2 16 361
2016-06-22 1 18 2 25 372
2016-06-23 2 22 1 20 317
2016-06-24 0 15 4 31 1535
2016-06-25 0 17 0 25 333
2016-06-26 1 15 2 17 249
2016-06-27 0 16 3 21 372
2016-06-28 0 17 0 17 438
2016-06-29 0 15 1 22 328
2016-06-30 0 16 1 22 443
พฤษภาคม 2016 65 449 46 26 11172
เมษายน 2016 5 264 48 19 7599
2016-04-01 0 6 2 15 251
2016-04-02 0 9 3 14 234
2016-04-03 0 7 4 15 192
2016-04-04 0 9 5 15 270
2016-04-05 0 6 2 12 161
2016-04-06 0 10 4 19 301
2016-04-07 0 10 2 18 373
2016-04-08 1 10 3 18 265
2016-04-09 0 8 1 17 202
2016-04-10 0 7 0 13 153
2016-04-11 1 9 2 12 173
2016-04-12 1 7 1 12 164
2016-04-13 0 6 1 12 129
2016-04-14 0 4 1 11 144
2016-04-15 0 3 1 11 188
2016-04-16 0 9 1 14 183
2016-04-17 0 6 0 13 144
2016-04-18 0 13 2 15 202
2016-04-19 1 12 1 14 223
2016-04-20 1 10 1 19 376
2016-04-21 0 11 2 18 427
2016-04-22 0 13 0 14 210
2016-04-23 0 10 1 13 1181
2016-04-24 0 8 0 13 175
2016-04-25 0 10 2 13 197
2016-04-26 0 15 0 12 309
2016-04-27 0 12 3 16 218
2016-04-28 0 11 1 14 228
2016-04-29 0 10 1 11 169
2016-04-30 0 3 1 14 157
มีนาคม 2016 1 269 35 27 7042
กุมภาพันธ์ 2016 6 268 35 29 7327
มกราคม 2016 8 210 40 18 5569
* 2015 35 492 137 43 23860
ธันวาคม 2015 3 149 26 19 5083
พฤศจิกายน 2015 3 107 12 43 3970
ตุลาคม 2015 3 34 13 12 2397
กันยายน 2015 2 33 18 12 1923
2015-09-01 0 1 0 4 25
2015-09-02 0 1 1 4 38
2015-09-03 0 1 0 7 75
2015-09-04 0 1 0 5 36
2015-09-05 0 1 1 4 36
2015-09-06 0 2 0 8 70
2015-09-07 1 2 1 5 76
2015-09-08 0 1 2 3 63
2015-09-09 0 1 1 6 78
2015-09-10 0 1 0 5 42
2015-09-11 0 1 0 4 30
2015-09-12 0 1 1 4 71
2015-09-13 0 2 0 4 75
2015-09-14 0 1 0 6 47
2015-09-15 0 1 0 8 90
2015-09-16 1 2 3 6 103
2015-09-17 0 1 0 9 72
2015-09-18 0 1 0 6 40
2015-09-19 0 0 1 6 102
2015-09-20 0 1 0 9 86
2015-09-21 0 1 1 9 76
2015-09-22 0 1 1 7 72
2015-09-23 0 1 2 7 82
2015-09-24 0 1 0 8 61
2015-09-25 0 1 0 6 35
2015-09-26 0 0 1 12 90
2015-09-27 0 2 1 10 91
2015-09-28 0 1 1 6 54
2015-09-29 0 1 0 11 68
2015-09-30 0 1 0 4 39
สิงหาคม 2015 1 35 13 10 1436
กรกฎาคม 2015 1 33 7 9 1695
2015-07-01 0 1 0 4 31
2015-07-02 1 2 1 9 92
2015-07-03 0 1 0 7 58
2015-07-04 0 0 0 7 70
2015-07-05 0 2 0 5 65
2015-07-06 0 1 0 2 32
2015-07-07 0 1 0 8 70
2015-07-08 0 1 0 8 51
2015-07-09 0 1 1 9 86
2015-07-10 0 1 1 7 46
2015-07-11 0 1 0 6 44
2015-07-12 0 2 1 7 88
2015-07-13 0 1 0 5 61
2015-07-14 0 1 0 6 50
2015-07-15 0 1 0 6 46
2015-07-16 0 1 0 2 37
2015-07-17 0 1 0 5 57
2015-07-18 0 0 0 5 64
2015-07-19 0 2 0 5 58
2015-07-20 0 1 0 4 36
2015-07-21 0 1 0 6 48
2015-07-22 0 1 0 8 46
2015-07-23 0 1 0 4 27
2015-07-24 0 1 1 4 56
2015-07-25 0 0 0 7 40
2015-07-26 0 2 1 7 57
2015-07-27 0 1 0 7 60
2015-07-28 0 1 1 5 50
2015-07-29 0 1 0 4 36
2015-07-30 0 1 0 5 85
2015-07-31 0 1 0 6 48
มิถุนายน 2015 2 38 12 10 1943
2015-06-01 0 2 1 6 92
2015-06-02 1 3 2 6 85
2015-06-03 0 1 1 6 69
2015-06-04 0 1 0 5 34
2015-06-05 0 2 0 7 73
2015-06-06 0 1 0 7 57
2015-06-07 0 1 1 9 108
2015-06-08 0 2 0 8 111
2015-06-09 0 1 0 10 74
2015-06-10 0 1 0 9 67
2015-06-11 0 1 1 8 96
2015-06-12 0 1 0 6 58
2015-06-13 0 0 0 4 37
2015-06-14 0 1 0 6 52
2015-06-15 0 1 0 6 62
2015-06-16 0 1 1 7 60
2015-06-17 0 1 0 7 45
2015-06-18 0 1 0 5 65
2015-06-19 0 1 0 7 49
2015-06-20 0 1 1 8 75
2015-06-21 1 2 0 5 55
2015-06-22 0 1 0 6 38
2015-06-23 0 3 0 7 76
2015-06-24 0 1 0 4 35
2015-06-25 0 1 0 8 50
2015-06-26 0 1 0 7 47
2015-06-27 0 1 0 7 54
2015-06-28 0 1 0 8 91
2015-06-29 0 2 2 7 88
2015-06-30 0 1 2 5 40
พฤษภาคม 2015 1 30 21 10 1886
เมษายน 2015 19 33 15 12 3527
2015-04-06 1 1 3 2 0
2015-04-07 0 1 0 2 0
2015-04-08 4 4 0 2 0
2015-04-09 4 6 0 2 0
2015-04-10 2 4 0 2 0
2015-04-11 3 3 4 3 160
2015-04-12 2 6 2 7 212
2015-04-13 1 1 1 4 1136
2015-04-14 0 1 1 7 663
2015-04-15 0 0 0 4 12
2015-04-16 0 0 0 4 59
2015-04-17 0 0 1 9 199
2015-04-18 0 0 0 10 178
2015-04-19 0 0 0 12 76
2015-04-20 0 0 0 6 83
2015-04-21 0 0 0 7 95
2015-04-22 0 0 0 8 88
2015-04-23 0 0 0 8 66
2015-04-24 1 1 1 7 97
2015-04-25 0 0 1 6 98
2015-04-26 0 0 0 5 32
2015-04-27 0 1 1 8 155
2015-04-28 0 1 0 4 51
2015-04-29 1 2 0 3 35
2015-04-30 0 1 0 5 32

TOP